createdAt,value
2018-08-28T00:02:10.937Z,83.61
2018-08-28T00:04:40.106Z,83.65
2018-08-28T00:07:09.447Z,84.33
2018-08-28T00:09:38.916Z,84.35
2018-08-28T00:12:08.521Z,84.45
2018-08-28T00:14:37.834Z,84.67
2018-08-28T00:17:07.069Z,85.40
2018-08-28T00:19:36.199Z,85.83
2018-08-28T00:22:05.390Z,86.03
2018-08-28T00:24:34.525Z,85.58
2018-08-28T00:27:03.657Z,86.32
2018-08-28T00:29:33.401Z,85.95
2018-08-28T00:32:02.567Z,86.73
2018-08-28T00:34:31.829Z,87.05
2018-08-28T00:37:00.929Z,86.50
2018-08-28T00:39:30.378Z,87.44
2018-08-28T00:41:59.546Z,87.66
2018-08-28T00:44:28.667Z,87.96
2018-08-28T00:46:57.810Z,89.05
2018-08-28T00:49:26.931Z,90.11
2018-08-28T00:51:56.094Z,90.48
2018-08-28T00:54:25.245Z,91.00
2018-08-28T00:56:54.341Z,91.37
2018-08-28T00:59:23.465Z,92.38
2018-08-28T01:01:52.609Z,92.16
2018-08-28T01:04:22.202Z,93.11
2018-08-28T01:06:51.510Z,94.23
2018-08-28T01:09:21.173Z,95.58
2018-08-28T01:11:50.610Z,96.05
2018-08-28T01:14:19.382Z,97.66
2018-08-28T01:16:48.505Z,98.36
2018-08-28T01:19:17.648Z,98.80
2018-08-28T01:21:46.778Z,99.60
2018-08-28T01:24:15.909Z,100.00
2018-08-28T01:26:45.046Z,100.00
2018-08-28T01:29:15.028Z,100.00
2018-08-28T01:31:44.140Z,100.00
2018-08-28T01:34:13.267Z,100.00
2018-08-28T01:36:42.749Z,100.00
2018-08-28T01:39:11.913Z,100.00
2018-08-28T01:41:41.027Z,100.00
2018-08-28T01:44:10.181Z,100.00
2018-08-28T01:46:39.278Z,100.00
2018-08-28T01:49:08.421Z,100.00
2018-08-28T01:51:37.538Z,100.00
2018-08-28T01:54:06.666Z,100.00
2018-08-28T01:56:35.842Z,100.00
2018-08-28T01:59:05.018Z,99.43
2018-08-28T02:01:34.131Z,99.66
2018-08-28T02:04:03.421Z,100.00
2018-08-28T02:06:33.086Z,100.00
2018-08-28T02:09:02.201Z,99.92
2018-08-28T02:11:31.341Z,99.54
2018-08-28T02:14:00.447Z,100.00
2018-08-28T02:16:30.242Z,100.00
2018-08-28T02:18:59.893Z,100.00
2018-08-28T02:21:29.063Z,100.00
2018-08-28T02:23:58.333Z,100.00
2018-08-28T02:26:27.465Z,100.00
2018-08-28T02:28:56.573Z,100.00
2018-08-28T02:31:25.719Z,100.00
2018-08-28T02:33:54.885Z,100.00
2018-08-28T02:36:24.699Z,100.00
2018-08-28T02:38:54.658Z,100.00
2018-08-28T02:41:23.783Z,100.00
2018-08-28T02:43:52.906Z,100.00
2018-08-28T02:46:22.073Z,100.00
2018-08-28T02:48:51.235Z,100.00
2018-08-28T02:51:20.361Z,100.00
2018-08-28T02:53:49.506Z,100.00
2018-08-28T02:56:18.649Z,100.00
2018-08-28T02:58:48.164Z,100.00
2018-08-28T03:01:17.325Z,100.00
2018-08-28T03:03:46.489Z,100.00
2018-08-28T03:06:16.141Z,100.00
2018-08-28T03:08:45.258Z,100.00
2018-08-28T03:11:14.493Z,100.00
2018-08-28T03:13:44.518Z,100.00
2018-08-28T03:16:13.931Z,100.00
2018-08-28T03:18:42.930Z,100.00
2018-08-28T03:21:12.083Z,100.00
2018-08-28T03:23:41.465Z,100.00
2018-08-28T03:26:10.966Z,100.00
2018-08-28T03:28:40.252Z,100.00
2018-08-28T03:31:09.442Z,100.00
2018-08-28T03:33:38.742Z,100.00
2018-08-28T03:36:07.853Z,100.00
2018-08-28T03:38:37.292Z,100.00
2018-08-28T03:41:06.430Z,100.00
2018-08-28T03:43:36.007Z,100.00
2018-08-28T03:46:05.157Z,100.00
2018-08-28T03:48:34.259Z,100.00
2018-08-28T03:51:03.394Z,100.00
2018-08-28T03:53:33.067Z,100.00
2018-08-28T03:56:02.175Z,100.00
2018-08-28T03:58:31.374Z,100.00
2018-08-28T04:01:00.515Z,100.00
2018-08-28T04:03:29.689Z,100.00
2018-08-28T04:05:58.805Z,100.00
2018-08-28T04:08:28.613Z,100.00
2018-08-28T04:10:57.737Z,100.00
2018-08-28T04:13:26.869Z,100.00
2018-08-28T04:15:55.996Z,100.00
2018-08-28T04:18:25.220Z,100.00
2018-08-28T04:20:54.843Z,100.00
2018-08-28T04:23:24.114Z,100.00
2018-08-28T04:25:54.415Z,100.00
2018-08-28T04:28:26.172Z,100.00
2018-08-28T04:30:55.724Z,100.00
2018-08-28T04:33:24.816Z,100.00
2018-08-28T04:35:53.937Z,100.00
2018-08-28T04:38:23.312Z,100.00
2018-08-28T04:40:52.423Z,100.00
2018-08-28T04:43:21.514Z,100.00
2018-08-28T04:45:50.694Z,100.00
2018-08-28T04:48:19.846Z,100.00
2018-08-28T04:50:48.983Z,100.00
2018-08-28T04:53:18.170Z,100.00
2018-08-28T04:55:47.982Z,100.00
2018-08-28T04:58:17.131Z,100.00
2018-08-28T05:00:46.351Z,100.00
2018-08-28T05:03:15.755Z,100.00
2018-08-28T05:05:44.922Z,100.00
2018-08-28T05:08:14.333Z,100.00
2018-08-28T05:10:43.462Z,100.00
2018-08-28T05:13:12.563Z,100.00
2018-08-28T05:15:41.942Z,100.00
2018-08-28T05:18:11.070Z,100.00
2018-08-28T05:20:40.330Z,100.00
2018-08-28T05:23:09.722Z,100.00
2018-08-28T05:25:39.602Z,100.00
2018-08-28T05:28:08.735Z,100.00
2018-08-28T05:30:37.915Z,100.00
2018-08-28T05:33:07.219Z,100.00
2018-08-28T05:35:36.346Z,100.00
2018-08-28T05:38:05.497Z,100.00
2018-08-28T05:40:34.606Z,100.00
2018-08-28T05:43:03.794Z,100.00
2018-08-28T05:45:32.915Z,100.00
2018-08-28T05:48:02.090Z,100.00
2018-08-28T05:50:31.202Z,97.28
2018-08-28T05:53:00.346Z,93.62
2018-08-28T05:55:29.573Z,91.72
2018-08-28T05:57:58.694Z,86.61
2018-08-28T06:00:27.822Z,85.08
2018-08-28T06:02:56.953Z,81.74
2018-08-28T06:05:26.026Z,79.35
2018-08-28T06:07:55.147Z,76.16
2018-08-28T06:10:24.954Z,74.21
2018-08-28T06:12:54.074Z,71.83
2018-08-28T06:15:23.183Z,70.80
2018-08-28T06:17:52.314Z,69.40
2018-08-28T06:20:21.567Z,72.21
2018-08-28T06:22:52.519Z,71.18
2018-08-28T06:25:21.695Z,71.35
2018-08-28T06:27:50.814Z,69.81
2018-08-28T06:30:19.969Z,70.02
2018-08-28T06:32:49.410Z,69.22
2018-08-28T06:35:18.651Z,68.22
2018-08-28T06:37:47.795Z,69.96
2018-08-28T06:40:16.936Z,66.66
2018-08-28T06:42:46.430Z,65.19
2018-08-28T06:45:18.380Z,65.33
2018-08-28T06:47:47.515Z,60.96
2018-08-28T06:50:16.631Z,56.56
2018-08-28T06:52:45.746Z,54.93
2018-08-28T06:55:15.472Z,52.40
2018-08-28T06:57:44.595Z,50.35
2018-08-28T07:00:13.706Z,49.06
2018-08-28T07:02:42.853Z,46.55
2018-08-28T07:05:11.982Z,46.75
2018-08-28T07:07:41.151Z,45.88
2018-08-28T07:10:10.302Z,45.30
2018-08-28T07:12:39.953Z,46.91
2018-08-28T07:15:09.519Z,47.38
2018-08-28T07:17:38.655Z,46.53
2018-08-28T07:20:07.970Z,45.09
2018-08-28T07:22:37.246Z,46.15
2018-08-28T07:25:06.859Z,47.40
2018-08-28T07:27:36.006Z,47.41
2018-08-28T07:30:06.089Z,47.18
2018-08-28T07:32:35.830Z,43.90
2018-08-28T07:35:05.702Z,43.50
2018-08-28T07:37:34.951Z,45.18
2018-08-28T07:40:04.752Z,41.86
2018-08-28T07:42:34.729Z,40.07
2018-08-28T07:45:04.533Z,40.97
2018-08-28T07:47:33.650Z,40.10
2018-08-28T07:50:02.972Z,38.96
2018-08-28T07:52:32.103Z,41.01
2018-08-28T07:55:01.223Z,40.86
2018-08-28T07:57:30.839Z,39.67
2018-08-28T07:59:59.962Z,38.83
2018-08-28T08:02:29.358Z,37.56
2018-08-28T08:04:58.930Z,37.15
2018-08-28T08:07:28.042Z,37.11
2018-08-28T08:09:57.150Z,35.42
2018-08-28T08:12:26.275Z,36.03
2018-08-28T08:14:55.394Z,34.55
2018-08-28T08:17:25.195Z,33.40
2018-08-28T08:19:54.333Z,32.82
2018-08-28T08:22:23.675Z,29.62
2018-08-28T08:24:52.938Z,30.20
2018-08-28T08:27:22.249Z,29.51
2018-08-28T08:29:50.999Z,27.84
2018-08-28T08:32:20.097Z,28.59
2018-08-28T08:34:49.202Z,30.11
2018-08-28T08:37:18.306Z,28.86
2018-08-28T08:39:47.450Z,29.89
2018-08-28T08:42:16.957Z,31.59
2018-08-28T08:44:46.200Z,32.61
2018-08-28T08:47:15.355Z,30.81
2018-08-28T08:49:44.475Z,29.75
2018-08-28T08:52:14.278Z,30.90
2018-08-28T08:54:43.738Z,36.35
2018-08-28T08:57:13.214Z,32.57
2018-08-28T08:59:42.378Z,29.46
2018-08-28T09:02:11.551Z,29.84
2018-08-28T09:04:41.290Z,30.56
2018-08-28T09:07:10.447Z,28.56
2018-08-28T09:09:39.615Z,30.53
2018-08-28T09:12:08.747Z,31.92
2018-08-28T09:14:37.835Z,28.59
2018-08-28T09:17:07.917Z,26.60
2018-08-28T09:19:37.503Z,25.60
2018-08-28T09:22:06.654Z,28.96
2018-08-28T09:24:35.497Z,25.58
2018-08-28T09:27:04.611Z,25.58
2018-08-28T09:29:34.201Z,24.67
2018-08-28T09:32:03.418Z,23.45
2018-08-28T09:34:32.523Z,23.65
2018-08-28T09:37:01.643Z,23.41
2018-08-28T09:39:30.797Z,22.83
2018-08-28T09:41:59.967Z,22.21
2018-08-28T09:44:29.257Z,22.98
2018-08-28T09:46:58.406Z,23.87
2018-08-28T09:49:27.515Z,25.64
2018-08-28T09:51:56.846Z,23.84
2018-08-28T09:54:26.017Z,25.01
2018-08-28T09:56:55.148Z,26.09
2018-08-28T09:59:24.306Z,24.63
2018-08-28T10:01:53.429Z,21.69
2018-08-28T10:04:22.691Z,21.00
2018-08-28T10:06:51.822Z,20.56
2018-08-28T10:09:20.935Z,19.83
2018-08-28T10:11:50.106Z,19.09
2018-08-28T10:14:19.261Z,23.19
2018-08-28T10:16:48.441Z,20.47
2018-08-28T10:19:17.567Z,21.02
2018-08-28T10:21:47.439Z,24.26
2018-08-28T10:24:16.807Z,21.48
2018-08-28T10:26:46.095Z,20.07
2018-08-28T10:29:14.984Z,18.30
2018-08-28T10:31:44.115Z,19.41
2018-08-28T10:34:13.218Z,23.00
2018-08-28T10:36:42.737Z,24.72
2018-08-28T10:39:11.880Z,27.26
2018-08-28T10:41:41.058Z,24.71
2018-08-28T10:44:10.851Z,24.79
2018-08-28T10:46:40.033Z,23.85
2018-08-28T10:49:09.088Z,20.60
2018-08-28T10:51:38.205Z,19.98
2018-08-28T10:54:07.619Z,19.46
2018-08-28T10:56:36.758Z,19.74
2018-08-28T10:59:06.842Z,20.70
2018-08-28T11:01:36.014Z,20.21
2018-08-28T11:04:05.130Z,18.98
2018-08-28T11:06:34.262Z,17.09
2018-08-28T11:09:03.618Z,15.49
2018-08-28T11:11:32.735Z,16.71
2018-08-28T11:14:01.926Z,18.86
2018-08-28T11:16:31.146Z,19.81
2018-08-28T11:19:00.778Z,20.17
2018-08-28T11:21:29.885Z,18.63
2018-08-28T11:23:59.041Z,18.27
2018-08-28T11:26:28.310Z,18.72
2018-08-28T11:28:57.418Z,20.52
2018-08-28T11:31:26.617Z,21.76
2018-08-28T11:33:55.922Z,21.11
2018-08-28T11:36:25.070Z,23.53
2018-08-28T11:38:54.198Z,25.03
2018-08-28T11:41:23.305Z,26.97
2018-08-28T11:43:52.465Z,21.49
2018-08-28T11:46:21.597Z,19.69
2018-08-28T11:48:50.714Z,19.26
2018-08-28T11:51:19.839Z,19.18
2018-08-28T11:53:48.952Z,17.53
2018-08-28T11:56:18.067Z,16.87
2018-08-28T11:58:47.190Z,19.22
2018-08-28T12:01:16.306Z,21.01
2018-08-28T12:03:45.438Z,20.55
2018-08-28T12:06:14.618Z,18.08
2018-08-28T12:08:44.322Z,19.95
2018-08-28T12:11:13.458Z,19.40
2018-08-28T12:13:42.650Z,20.55
2018-08-28T12:16:11.818Z,18.47
2018-08-28T12:18:40.958Z,19.73
2018-08-28T12:21:10.278Z,24.52
2018-08-28T12:23:39.441Z,26.28
2018-08-28T12:26:08.566Z,25.46
2018-08-28T12:28:37.342Z,24.56
2018-08-28T12:31:06.455Z,22.78
2018-08-28T12:33:35.566Z,21.41
2018-08-28T12:36:04.879Z,21.17
2018-08-28T12:38:34.182Z,24.22
2018-08-28T12:41:03.298Z,24.12
2018-08-28T12:43:32.468Z,26.28
2018-08-28T12:46:01.947Z,29.95
2018-08-28T12:48:31.298Z,31.64
2018-08-28T12:51:00.449Z,32.37
2018-08-28T12:53:29.566Z,33.14
2018-08-28T12:55:58.778Z,34.28
2018-08-28T12:58:27.882Z,34.72
2018-08-28T13:00:57.084Z,34.66
2018-08-28T13:03:26.303Z,35.07
2018-08-28T13:05:55.465Z,32.68
2018-08-28T13:08:25.014Z,30.68
2018-08-28T13:10:54.189Z,30.47
2018-08-28T13:13:23.330Z,31.44
2018-08-28T13:15:52.444Z,29.94
2018-08-28T13:18:22.261Z,26.83
2018-08-28T13:20:51.402Z,25.13
2018-08-28T13:23:21.282Z,24.73
2018-08-28T13:25:50.501Z,23.05
2018-08-28T13:28:20.186Z,21.29
2018-08-28T13:30:49.392Z,21.71
2018-08-28T13:33:18.505Z,22.01
2018-08-28T13:35:47.620Z,26.31
2018-08-28T13:38:16.779Z,22.71
2018-08-28T13:40:46.122Z,21.18
2018-08-28T13:43:15.563Z,20.91
2018-08-28T13:45:44.742Z,20.84
2018-08-28T13:48:14.658Z,20.79
2018-08-28T13:50:43.781Z,24.33
2018-08-28T13:53:13.002Z,25.16
2018-08-28T13:55:42.098Z,26.99
2018-08-28T13:58:11.226Z,24.05
2018-08-28T14:00:40.546Z,27.53
2018-08-28T14:03:09.670Z,26.05
2018-08-28T14:05:39.098Z,23.26
2018-08-28T14:08:08.275Z,23.94
2018-08-28T14:10:37.415Z,25.20
2018-08-28T14:13:07.211Z,22.82
2018-08-28T14:15:36.407Z,24.80
2018-08-28T14:18:06.206Z,27.78
2018-08-28T14:20:35.434Z,27.23
2018-08-28T14:23:04.591Z,23.82
2018-08-28T14:25:34.703Z,23.82
2018-08-28T14:28:03.833Z,21.47
2018-08-28T14:30:33.286Z,21.89
2018-08-28T14:33:02.558Z,22.50
2018-08-28T14:35:31.851Z,21.40
2018-08-28T14:38:01.515Z,23.86
2018-08-28T14:40:30.929Z,22.06
2018-08-28T14:43:00.504Z,21.88
2018-08-28T14:45:29.742Z,24.68
2018-08-28T14:47:58.985Z,23.77
2018-08-28T14:50:28.672Z,22.97
2018-08-28T14:52:58.290Z,22.86
2018-08-28T14:55:27.551Z,25.77
2018-08-28T14:57:56.767Z,23.97
2018-08-28T15:00:25.790Z,25.25
2018-08-28T15:02:54.922Z,26.51
2018-08-28T15:05:24.253Z,23.93
2018-08-28T15:07:53.822Z,26.46
2018-08-28T15:10:22.930Z,27.44
2018-08-28T15:12:52.547Z,26.52
2018-08-28T15:15:21.731Z,29.08
2018-08-28T15:17:50.902Z,28.01
2018-08-28T15:20:20.035Z,25.44
2018-08-28T15:22:49.159Z,25.70
2018-08-28T15:25:18.314Z,26.01
2018-08-28T15:27:47.458Z,29.58
2018-08-28T15:30:16.591Z,28.00
2018-08-28T15:32:45.770Z,26.48
2018-08-28T15:35:15.027Z,25.25
2018-08-28T15:37:44.390Z,23.54
2018-08-28T15:40:13.863Z,24.26
2018-08-28T15:42:43.019Z,25.59
2018-08-28T15:45:12.194Z,28.22
2018-08-28T15:47:41.574Z,27.61
2018-08-28T15:50:10.773Z,25.88
2018-08-28T15:52:39.902Z,25.56
2018-08-28T15:55:09.067Z,30.43
2018-08-28T15:57:38.250Z,30.41
2018-08-28T16:00:08.075Z,29.51
2018-08-28T16:02:37.274Z,30.00
2018-08-28T16:05:06.997Z,29.56
2018-08-28T16:07:36.297Z,29.60
2018-08-28T16:10:05.643Z,30.65
2018-08-28T16:12:34.828Z,30.67
2018-08-28T16:15:03.977Z,30.63
2018-08-28T16:17:33.118Z,32.36
2018-08-28T16:20:02.272Z,31.77
2018-08-28T16:22:35.702Z,31.81
2018-08-28T16:25:05.130Z,31.40
2018-08-28T16:27:34.264Z,31.37
2018-08-28T16:30:03.422Z,32.84
2018-08-28T16:32:32.647Z,35.13
2018-08-28T16:35:01.924Z,34.27
2018-08-28T16:37:31.118Z,35.47
2018-08-28T16:39:59.902Z,35.83
2018-08-28T16:42:29.087Z,36.19
2018-08-28T16:44:58.214Z,36.30
2018-08-28T16:47:27.534Z,36.72
2018-08-28T16:49:56.750Z,36.66
2018-08-28T16:52:25.822Z,37.51
2018-08-28T16:54:54.949Z,36.32
2018-08-28T16:57:24.109Z,37.53
2018-08-28T16:59:53.227Z,38.06
2018-08-28T17:02:22.721Z,36.22
2018-08-28T17:04:51.877Z,38.21
2018-08-28T17:07:21.077Z,39.15
2018-08-28T17:09:51.275Z,39.72
2018-08-28T17:12:21.081Z,41.07
2018-08-28T17:14:51.041Z,41.09
2018-08-28T17:17:20.128Z,42.21
2018-08-28T17:19:49.491Z,43.47
2018-08-28T17:22:19.006Z,42.87
2018-08-28T17:24:48.843Z,44.14
2018-08-28T17:27:17.921Z,43.59
2018-08-28T17:29:47.063Z,44.03
2018-08-28T17:32:16.258Z,44.46
2018-08-28T17:34:45.562Z,45.14
2018-08-28T17:37:15.110Z,44.78
2018-08-28T17:39:44.721Z,45.29
2018-08-28T17:42:13.839Z,46.33
2018-08-28T17:44:43.258Z,45.14
2018-08-28T17:47:12.503Z,46.02
2018-08-28T17:49:41.582Z,47.18
2018-08-28T17:52:11.043Z,47.40
2018-08-28T17:54:40.537Z,48.78
2018-08-28T17:57:09.967Z,49.69
2018-08-28T17:59:39.097Z,49.46
2018-08-28T18:02:08.974Z,48.61
2018-08-28T18:04:38.087Z,49.25
2018-08-28T18:07:07.198Z,49.60
2018-08-28T18:09:36.520Z,50.50
2018-08-28T18:12:05.621Z,50.59
2018-08-28T18:14:34.862Z,48.66
2018-08-28T18:17:04.509Z,48.28
2018-08-28T18:19:34.275Z,47.88
2018-08-28T18:22:03.439Z,49.01
2018-08-28T18:24:32.582Z,50.37
2018-08-28T18:27:01.693Z,51.77
2018-08-28T18:29:30.854Z,52.90
2018-08-28T18:32:00.015Z,53.14
2018-08-28T18:34:29.374Z,54.74
2018-08-28T18:36:58.486Z,55.17
2018-08-28T18:39:27.626Z,54.64
2018-08-28T18:41:57.274Z,55.14
2018-08-28T18:44:26.653Z,55.48
2018-08-28T18:46:56.313Z,55.65
2018-08-28T18:49:25.472Z,57.79
2018-08-28T18:51:54.862Z,57.13
2018-08-28T18:54:24.003Z,56.99
2018-08-28T18:56:53.134Z,57.80
2018-08-28T18:59:22.003Z,57.28
2018-08-28T19:01:51.122Z,58.26
2018-08-28T19:04:20.275Z,59.27
2018-08-28T19:06:49.430Z,58.07
2018-08-28T19:09:19.226Z,58.92
2018-08-28T19:11:48.286Z,59.52
2018-08-28T19:14:17.426Z,58.83
2018-08-28T19:16:46.558Z,58.88
2018-08-28T19:19:15.958Z,55.05
2018-08-28T19:21:45.153Z,54.36
2018-08-28T19:24:14.294Z,54.36
2018-08-28T19:26:43.478Z,52.52
2018-08-28T19:29:12.628Z,51.99
2018-08-28T19:31:41.817Z,52.00
2018-08-28T19:34:10.962Z,52.58
2018-08-28T19:36:40.110Z,52.39
2018-08-28T19:39:09.225Z,52.42
2018-08-28T19:41:38.359Z,52.56
2018-08-28T19:44:07.536Z,53.71
2018-08-28T19:46:36.674Z,54.62
2018-08-28T19:49:06.903Z,54.56
2018-08-28T19:51:36.030Z,54.60
2018-08-28T19:54:05.197Z,54.46
2018-08-28T19:56:34.350Z,55.47
2018-08-28T19:59:03.591Z,56.14
2018-08-28T20:01:32.982Z,55.72
2018-08-28T20:04:02.239Z,55.66
2018-08-28T20:06:31.300Z,56.36
2018-08-28T20:09:00.608Z,56.69
2018-08-28T20:11:29.903Z,56.36
2018-08-28T20:13:59.025Z,56.03
2018-08-28T20:16:28.163Z,57.26
2018-08-28T20:18:57.358Z,56.86
2018-08-28T20:21:26.757Z,56.96
2018-08-28T20:23:55.897Z,57.14
2018-08-28T20:26:25.019Z,57.38
2018-08-28T20:28:54.306Z,57.22
2018-08-28T20:31:23.483Z,57.83
2018-08-28T20:33:52.633Z,59.02
2018-08-28T20:36:21.739Z,57.89
2018-08-28T20:38:50.910Z,58.41
2018-08-28T20:41:20.034Z,58.42
2018-08-28T20:43:49.178Z,57.94
2018-08-28T20:46:18.390Z,58.75
2018-08-28T20:48:47.882Z,58.13
2018-08-28T20:51:17.063Z,58.55
2018-08-28T20:53:46.298Z,58.51
2018-08-28T20:56:16.090Z,58.97
2018-08-28T20:58:46.018Z,59.16
2018-08-28T21:01:15.908Z,59.39
2018-08-28T21:03:45.935Z,58.93
2018-08-28T21:06:15.821Z,60.20
2018-08-28T21:08:45.675Z,59.61
2018-08-28T21:11:14.369Z,59.47
2018-08-28T21:13:43.585Z,61.15
2018-08-28T21:16:12.713Z,60.31
2018-08-28T21:18:41.914Z,60.23
2018-08-28T21:21:11.122Z,60.60
2018-08-28T21:23:40.255Z,62.22
2018-08-28T21:26:09.423Z,62.65
2018-08-28T21:28:38.549Z,64.25
2018-08-28T21:31:07.658Z,65.36
2018-08-28T21:33:36.841Z,65.89
2018-08-28T21:36:05.948Z,66.06
2018-08-28T21:38:35.064Z,67.25
2018-08-28T21:41:04.239Z,67.57
2018-08-28T21:43:33.778Z,69.00
2018-08-28T21:46:02.924Z,69.66
2018-08-28T21:48:32.026Z,69.96
2018-08-28T21:51:01.155Z,72.49
2018-08-28T21:53:30.302Z,72.41
2018-08-28T21:55:59.422Z,72.34
2018-08-28T21:58:28.536Z,73.25
2018-08-28T22:01:02.990Z,72.44
2018-08-28T22:03:32.357Z,73.06
2018-08-28T22:06:02.099Z,72.41
2018-08-28T22:08:31.518Z,73.43
2018-08-28T22:11:01.899Z,74.13
2018-08-28T22:13:31.285Z,75.33
2018-08-28T22:16:00.537Z,75.07
2018-08-28T22:18:31.530Z,75.87
2018-08-28T22:21:00.617Z,76.91
2018-08-28T22:23:29.721Z,77.58
2018-08-28T22:25:58.834Z,77.11
2018-08-28T22:28:27.930Z,76.98
2018-08-28T22:30:57.007Z,77.09
2018-08-28T22:33:26.306Z,78.14
2018-08-28T22:35:55.374Z,78.29
2018-08-28T22:38:24.478Z,79.07
2018-08-28T22:40:53.582Z,79.12
2018-08-28T22:43:23.770Z,79.22
2018-08-28T22:45:53.052Z,79.41
2018-08-28T22:48:22.142Z,80.43
2018-08-28T22:50:51.242Z,80.43
2018-08-28T22:53:20.369Z,80.84
2018-08-28T22:55:49.494Z,81.39
2018-08-28T22:58:18.894Z,81.42
2018-08-28T23:00:48.042Z,82.93
2018-08-28T23:03:17.120Z,83.77
2018-08-28T23:05:46.537Z,83.37
2018-08-28T23:08:15.638Z,83.71
2018-08-28T23:10:45.250Z,83.63
2018-08-28T23:13:14.347Z,84.38
2018-08-28T23:15:43.430Z,84.17
2018-08-28T23:18:12.538Z,84.10
2018-08-28T23:20:41.637Z,84.65
2018-08-28T23:23:10.762Z,84.84
2018-08-28T23:25:39.856Z,84.91
2018-08-28T23:28:08.942Z,84.93
2018-08-28T23:30:38.106Z,84.90
2018-08-28T23:33:07.206Z,84.19
2018-08-28T23:35:36.307Z,84.31
2018-08-28T23:38:05.497Z,84.74
2018-08-28T23:40:35.147Z,84.41
2018-08-28T23:43:04.278Z,84.73
2018-08-28T23:45:33.385Z,84.86
2018-08-28T23:48:02.474Z,84.49
2018-08-28T23:50:31.608Z,85.04
2018-08-28T23:53:00.694Z,85.00
2018-08-28T23:55:29.790Z,85.32
2018-08-28T23:57:59.718Z,85.54
